sensor_id;sensor_type;location;lat;lon;timestamp;P1;durP1;ratioP1;P2;durP2;ratioP2
5543;SDS011;2795;47.652;13.128;2022-11-15T00:00:48;27.90;;;6.77;;
5543;SDS011;2795;47.652;13.128;2022-11-15T00:03:16;19.47;;;5.47;;
5543;SDS011;2795;47.652;13.128;2022-11-15T00:05:43;16.77;;;5.47;;
5543;SDS011;2795;47.652;13.128;2022-11-15T00:08:10;19.40;;;5.77;;
5543;SDS011;2795;47.652;13.128;2022-11-15T00:10:37;18.87;;;6.17;;
5543;SDS011;2795;47.652;13.128;2022-11-15T00:13:05;18.97;;;5.57;;
5543;SDS011;2795;47.652;13.128;2022-11-15T00:15:34;15.00;;;5.63;;
5543;SDS011;2795;47.652;13.128;2022-11-15T00:18:03;17.50;;;5.40;;
5543;SDS011;2795;47.652;13.128;2022-11-15T00:20:31;16.10;;;4.87;;
5543;SDS011;2795;47.652;13.128;2022-11-15T00:22:59;18.17;;;5.23;;
5543;SDS011;2795;47.652;13.128;2022-11-15T00:25:26;15.87;;;5.13;;
5543;SDS011;2795;47.652;13.128;2022-11-15T00:27:57;13.97;;;5.07;;
5543;SDS011;2795;47.652;13.128;2022-11-15T00:30:24;11.90;;;5.47;;
5543;SDS011;2795;47.652;13.128;2022-11-15T00:32:51;16.73;;;5.40;;
5543;SDS011;2795;47.652;13.128;2022-11-15T00:35:18;19.70;;;5.73;;
5543;SDS011;2795;47.652;13.128;2022-11-15T00:37:45;17.60;;;5.83;;
5543;SDS011;2795;47.652;13.128;2022-11-15T00:40:13;11.53;;;4.50;;
5543;SDS011;2795;47.652;13.128;2022-11-15T00:42:40;17.57;;;5.63;;
5543;SDS011;2795;47.652;13.128;2022-11-15T00:45:07;17.03;;;5.50;;
5543;SDS011;2795;47.652;13.128;2022-11-15T00:47:35;11.70;;;4.80;;
5543;SDS011;2795;47.652;13.128;2022-11-15T00:50:01;14.60;;;5.17;;
5543;SDS011;2795;47.652;13.128;2022-11-15T00:52:28;18.77;;;5.80;;
5543;SDS011;2795;47.652;13.128;2022-11-15T00:54:55;19.80;;;6.10;;
5543;SDS011;2795;47.652;13.128;2022-11-15T00:57:22;16.67;;;5.00;;
5543;SDS011;2795;47.652;13.128;2022-11-15T00:59:49;13.60;;;5.10;;
5543;SDS011;2795;47.652;13.128;2022-11-15T01:02:15;15.43;;;5.73;;
5543;SDS011;2795;47.652;13.128;2022-11-15T01:04:42;17.67;;;5.90;;
5543;SDS011;2795;47.652;13.128;2022-11-15T01:07:09;11.80;;;4.40;;
5543;SDS011;2795;47.652;13.128;2022-11-15T01:09:35;18.17;;;5.50;;
5543;SDS011;2795;47.652;13.128;2022-11-15T01:12:02;13.63;;;5.03;;
5543;SDS011;2795;47.652;13.128;2022-11-15T01:14:29;21.57;;;6.23;;
5543;SDS011;2795;47.652;13.128;2022-11-15T01:16:56;14.77;;;5.70;;
5543;SDS011;2795;47.652;13.128;2022-11-15T01:19:22;15.13;;;5.13;;
5543;SDS011;2795;47.652;13.128;2022-11-15T01:21:49;24.63;;;5.47;;
5543;SDS011;2795;47.652;13.128;2022-11-15T01:24:16;16.10;;;5.37;;
5543;SDS011;2795;47.652;13.128;2022-11-15T01:26:43;22.63;;;5.80;;
5543;SDS011;2795;47.652;13.128;2022-11-15T01:29:09;16.03;;;5.30;;
5543;SDS011;2795;47.652;13.128;2022-11-15T01:31:36;20.53;;;5.93;;
5543;SDS011;2795;47.652;13.128;2022-11-15T01:34:02;23.80;;;6.30;;
5543;SDS011;2795;47.652;13.128;2022-11-15T01:36:29;10.30;;;5.20;;
5543;SDS011;2795;47.652;13.128;2022-11-15T01:38:56;15.23;;;5.30;;
5543;SDS011;2795;47.652;13.128;2022-11-15T01:41:24;18.03;;;5.60;;
5543;SDS011;2795;47.652;13.128;2022-11-15T01:43:53;13.30;;;5.20;;
5543;SDS011;2795;47.652;13.128;2022-11-15T01:49:03;23.10;;;5.70;;
5543;SDS011;2795;47.652;13.128;2022-11-15T01:51:34;16.70;;;5.40;;
5543;SDS011;2795;47.652;13.128;2022-11-15T01:54:05;27.23;;;6.60;;
5543;SDS011;2795;47.652;13.128;2022-11-15T01:56:41;19.50;;;5.50;;
5543;SDS011;2795;47.652;13.128;2022-11-15T01:59:10;23.93;;;6.70;;
5543;SDS011;2795;47.652;13.128;2022-11-15T02:01:37;14.27;;;5.23;;
5543;SDS011;2795;47.652;13.128;2022-11-15T02:04:06;14.83;;;5.20;;
5543;SDS011;2795;47.652;13.128;2022-11-15T02:06:40;20.57;;;5.63;;
5543;SDS011;2795;47.652;13.128;2022-11-15T02:09:07;15.27;;;4.77;;
5543;SDS011;2795;47.652;13.128;2022-11-15T02:11:34;16.27;;;5.03;;
5543;SDS011;2795;47.652;13.128;2022-11-15T02:14:01;17.33;;;5.03;;
5543;SDS011;2795;47.652;13.128;2022-11-15T02:16:38;15.93;;;4.90;;
5543;SDS011;2795;47.652;13.128;2022-11-15T02:33:10;8.30;;;4.40;;
5543;SDS011;2795;47.652;13.128;2022-11-15T02:41:09;10.17;;;4.00;;
5543;SDS011;2795;47.652;13.128;2022-11-15T02:43:49;10.47;;;4.33;;
5543;SDS011;2795;47.652;13.128;2022-11-15T02:46:42;16.90;;;5.17;;
5543;SDS011;2795;47.652;13.128;2022-11-15T02:49:31;13.20;;;4.40;;
5543;SDS011;2795;47.652;13.128;2022-11-15T02:51:59;18.03;;;5.60;;
5543;SDS011;2795;47.652;13.128;2022-11-15T02:54:28;14.27;;;4.57;;
5543;SDS011;2795;47.652;13.128;2022-11-15T02:57:07;21.87;;;5.60;;
5543;SDS011;2795;47.652;13.128;2022-11-15T02:59:49;16.50;;;4.90;;
5543;SDS011;2795;47.652;13.128;2022-11-15T03:02:49;13.27;;;4.60;;
5543;SDS011;2795;47.652;13.128;2022-11-15T03:05:37;8.20;;;4.00;;
5543;SDS011;2795;47.652;13.128;2022-11-15T03:10:59;16.80;;;4.40;;
5543;SDS011;2795;47.652;13.128;2022-11-15T03:13:34;11.93;;;4.53;;
5543;SDS011;2795;47.652;13.128;2022-11-15T03:16:06;14.50;;;4.50;;
5543;SDS011;2795;47.652;13.128;2022-11-15T03:18:40;13.90;;;5.17;;
5543;SDS011;2795;47.652;13.128;2022-11-15T03:21:08;18.30;;;4.97;;
5543;SDS011;2795;47.652;13.128;2022-11-15T03:23:38;11.17;;;4.47;;
5543;SDS011;2795;47.652;13.128;2022-11-15T03:26:09;15.30;;;4.83;;
5543;SDS011;2795;47.652;13.128;2022-11-15T03:28:40;13.43;;;4.60;;
5543;SDS011;2795;47.652;13.128;2022-11-15T03:31:12;14.73;;;5.10;;
5543;SDS011;2795;47.652;13.128;2022-11-15T03:33:59;18.43;;;5.60;;
5543;SDS011;2795;47.652;13.128;2022-11-15T03:36:28;19.83;;;5.50;;
5543;SDS011;2795;47.652;13.128;2022-11-15T03:38:58;20.80;;;5.90;;
5543;SDS011;2795;47.652;13.128;2022-11-15T03:41:28;12.57;;;4.63;;
5543;SDS011;2795;47.652;13.128;2022-11-15T03:44:04;22.27;;;6.10;;
5543;SDS011;2795;47.652;13.128;2022-11-15T03:46:39;7.70;;;4.07;;
5543;SDS011;2795;47.652;13.128;2022-11-15T03:49:12;16.20;;;5.10;;
5543;SDS011;2795;47.652;13.128;2022-11-15T03:51:41;14.83;;;4.57;;
5543;SDS011;2795;47.652;13.128;2022-11-15T03:54:08;14.87;;;4.67;;
5543;SDS011;2795;47.652;13.128;2022-11-15T03:56:34;13.23;;;4.50;;
5543;SDS011;2795;47.652;13.128;2022-11-15T03:59:01;13.60;;;4.83;;
5543;SDS011;2795;47.652;13.128;2022-11-15T04:01:27;15.00;;;5.13;;
5543;SDS011;2795;47.652;13.128;2022-11-15T04:03:54;16.60;;;4.60;;
5543;SDS011;2795;47.652;13.128;2022-11-15T04:06:21;12.60;;;4.80;;
5543;SDS011;2795;47.652;13.128;2022-11-15T04:08:47;23.33;;;5.80;;
5543;SDS011;2795;47.652;13.128;2022-11-15T04:11:14;21.43;;;5.17;;
5543;SDS011;2795;47.652;13.128;2022-11-15T04:13:40;12.33;;;4.30;;
5543;SDS011;2795;47.652;13.128;2022-11-15T04:16:07;15.23;;;4.43;;
5543;SDS011;2795;47.652;13.128;2022-11-15T04:18:33;10.10;;;4.40;;
5543;SDS011;2795;47.652;13.128;2022-11-15T04:21:00;19.03;;;5.20;;
5543;SDS011;2795;47.652;13.128;2022-11-15T04:23:45;14.73;;;4.97;;
5543;SDS011;2795;47.652;13.128;2022-11-15T04:26:32;14.03;;;5.00;;
5543;SDS011;2795;47.652;13.128;2022-11-15T04:28:58;14.33;;;4.60;;
5543;SDS011;2795;47.652;13.128;2022-11-15T04:31:44;11.97;;;4.17;;
5543;SDS011;2795;47.652;13.128;2022-11-15T04:34:10;24.07;;;6.00;;
5543;SDS011;2795;47.652;13.128;2022-11-15T04:36:37;9.37;;;4.13;;
5543;SDS011;2795;47.652;13.128;2022-11-15T04:39:22;18.53;;;5.00;;
5543;SDS011;2795;47.652;13.128;2022-11-15T04:41:49;9.83;;;4.07;;
5543;SDS011;2795;47.652;13.128;2022-11-15T04:44:15;20.43;;;5.47;;
5543;SDS011;2795;47.652;13.128;2022-11-15T04:46:42;21.37;;;5.40;;
5543;SDS011;2795;47.652;13.128;2022-11-15T04:49:09;31.47;;;6.50;;
5543;SDS011;2795;47.652;13.128;2022-11-15T04:51:35;13.20;;;4.73;;
5543;SDS011;2795;47.652;13.128;2022-11-15T04:54:02;12.23;;;4.33;;
5543;SDS011;2795;47.652;13.128;2022-11-15T04:56:29;33.73;;;6.43;;
5543;SDS011;2795;47.652;13.128;2022-11-15T04:58:55;15.40;;;4.87;;
5543;SDS011;2795;47.652;13.128;2022-11-15T05:01:22;19.03;;;5.30;;
5543;SDS011;2795;47.652;13.128;2022-11-15T05:03:49;15.40;;;4.57;;
5543;SDS011;2795;47.652;13.128;2022-11-15T05:06:49;10.03;;;4.00;;
5543;SDS011;2795;47.652;13.128;2022-11-15T05:09:17;16.47;;;4.70;;
5543;SDS011;2795;47.652;13.128;2022-11-15T05:11:44;11.47;;;4.40;;
5543;SDS011;2795;47.652;13.128;2022-11-15T05:14:11;11.80;;;4.00;;
5543;SDS011;2795;47.652;13.128;2022-11-15T05:16:38;15.17;;;4.40;;
5543;SDS011;2795;47.652;13.128;2022-11-15T05:19:05;17.53;;;5.13;;
5543;SDS011;2795;47.652;13.128;2022-11-15T05:21:32;14.23;;;4.70;;
5543;SDS011;2795;47.652;13.128;2022-11-15T05:24:00;15.90;;;4.93;;
5543;SDS011;2795;47.652;13.128;2022-11-15T05:26:27;13.50;;;3.87;;
5543;SDS011;2795;47.652;13.128;2022-11-15T05:28:54;17.63;;;4.53;;
5543;SDS011;2795;47.652;13.128;2022-11-15T05:31:22;10.53;;;3.97;;
5543;SDS011;2795;47.652;13.128;2022-11-15T05:33:50;13.07;;;4.07;;
5543;SDS011;2795;47.652;13.128;2022-11-15T05:38:54;32.67;;;6.53;;
5543;SDS011;2795;47.652;13.128;2022-11-15T05:41:21;17.87;;;4.83;;
5543;SDS011;2795;47.652;13.128;2022-11-15T05:43:52;17.10;;;4.87;;
5543;SDS011;2795;47.652;13.128;2022-11-15T05:46:19;14.53;;;4.83;;
5543;SDS011;2795;47.652;13.128;2022-11-15T05:48:46;12.83;;;4.63;;
5543;SDS011;2795;47.652;13.128;2022-11-15T05:51:15;14.77;;;4.63;;
5543;SDS011;2795;47.652;13.128;2022-11-15T05:53:43;11.20;;;4.00;;
5543;SDS011;2795;47.652;13.128;2022-11-15T05:56:10;18.87;;;4.93;;
5543;SDS011;2795;47.652;13.128;2022-11-15T05:58:37;14.20;;;4.37;;
5543;SDS011;2795;47.652;13.128;2022-11-15T06:01:04;14.37;;;4.57;;
5543;SDS011;2795;47.652;13.128;2022-11-15T06:03:31;20.57;;;5.77;;
5543;SDS011;2795;47.652;13.128;2022-11-15T06:05:58;18.60;;;4.70;;
5543;SDS011;2795;47.652;13.128;2022-11-15T06:08:24;12.23;;;4.40;;
5543;SDS011;2795;47.652;13.128;2022-11-15T06:10:51;13.17;;;4.60;;
5543;SDS011;2795;47.652;13.128;2022-11-15T06:13:17;15.20;;;4.83;;
5543;SDS011;2795;47.652;13.128;2022-11-15T06:15:44;17.73;;;5.53;;
5543;SDS011;2795;47.652;13.128;2022-11-15T06:18:10;11.27;;;4.67;;
5543;SDS011;2795;47.652;13.128;2022-11-15T06:20:37;13.87;;;5.20;;
5543;SDS011;2795;47.652;13.128;2022-11-15T06:23:04;15.67;;;5.50;;
5543;SDS011;2795;47.652;13.128;2022-11-15T06:25:31;27.83;;;7.13;;
5543;SDS011;2795;47.652;13.128;2022-11-15T06:27:58;11.63;;;4.90;;
5543;SDS011;2795;47.652;13.128;2022-11-15T06:30:25;10.20;;;4.70;;
5543;SDS011;2795;47.652;13.128;2022-11-15T06:32:58;24.00;;;6.60;;
5543;SDS011;2795;47.652;13.128;2022-11-15T06:35:28;26.03;;;6.47;;
5543;SDS011;2795;47.652;13.128;2022-11-15T06:37:55;14.93;;;5.33;;
5543;SDS011;2795;47.652;13.128;2022-11-15T06:40:21;17.13;;;5.13;;
5543;SDS011;2795;47.652;13.128;2022-11-15T06:42:48;12.53;;;4.77;;
5543;SDS011;2795;47.652;13.128;2022-11-15T06:45:14;10.13;;;4.20;;
5543;SDS011;2795;47.652;13.128;2022-11-15T06:47:45;15.83;;;4.40;;
5543;SDS011;2795;47.652;13.128;2022-11-15T06:50:12;13.77;;;4.10;;
5543;SDS011;2795;47.652;13.128;2022-11-15T06:52:39;14.90;;;4.43;;
5543;SDS011;2795;47.652;13.128;2022-11-15T06:55:06;16.13;;;4.57;;
5543;SDS011;2795;47.652;13.128;2022-11-15T06:57:34;13.00;;;4.07;;
5543;SDS011;2795;47.652;13.128;2022-11-15T07:00:01;14.20;;;4.40;;
5543;SDS011;2795;47.652;13.128;2022-11-15T07:02:31;16.07;;;4.90;;
5543;SDS011;2795;47.652;13.128;2022-11-15T07:04:58;13.73;;;4.37;;
5543;SDS011;2795;47.652;13.128;2022-11-15T07:07:24;11.63;;;4.37;;
5543;SDS011;2795;47.652;13.128;2022-11-15T07:09:51;13.93;;;4.30;;
5543;SDS011;2795;47.652;13.128;2022-11-15T07:12:17;30.07;;;6.00;;
5543;SDS011;2795;47.652;13.128;2022-11-15T07:14:44;8.83;;;4.10;;
5543;SDS011;2795;47.652;13.128;2022-11-15T07:17:10;17.23;;;4.60;;
5543;SDS011;2795;47.652;13.128;2022-11-15T07:19:37;17.30;;;4.67;;
5543;SDS011;2795;47.652;13.128;2022-11-15T07:22:03;12.70;;;4.40;;
5543;SDS011;2795;47.652;13.128;2022-11-15T07:24:30;18.37;;;4.60;;
5543;SDS011;2795;47.652;13.128;2022-11-15T07:26:56;18.17;;;4.67;;
5543;SDS011;2795;47.652;13.128;2022-11-15T07:29:23;17.67;;;4.60;;
5543;SDS011;2795;47.652;13.128;2022-11-15T07:31:50;20.57;;;4.93;;
5543;SDS011;2795;47.652;13.128;2022-11-15T07:34:16;14.23;;;4.77;;
5543;SDS011;2795;47.652;13.128;2022-11-15T07:36:43;7.53;;;4.10;;
5543;SDS011;2795;47.652;13.128;2022-11-15T07:39:09;21.17;;;4.93;;
5543;SDS011;2795;47.652;13.128;2022-11-15T07:41:38;15.97;;;4.63;;
5543;SDS011;2795;47.652;13.128;2022-11-15T07:44:05;12.30;;;4.53;;
5543;SDS011;2795;47.652;13.128;2022-11-15T07:46:32;19.30;;;4.80;;
5543;SDS011;2795;47.652;13.128;2022-11-15T07:48:58;19.23;;;4.77;;
5543;SDS011;2795;47.652;13.128;2022-11-15T07:51:25;14.30;;;4.73;;
5543;SDS011;2795;47.652;13.128;2022-11-15T07:53:52;13.20;;;4.17;;
5543;SDS011;2795;47.652;13.128;2022-11-15T07:56:19;12.57;;;4.53;;
5543;SDS011;2795;47.652;13.128;2022-11-15T07:58:47;17.70;;;4.77;;
5543;SDS011;2795;47.652;13.128;2022-11-15T08:01:13;13.77;;;4.23;;
5543;SDS011;2795;47.652;13.128;2022-11-15T08:03:40;11.20;;;3.80;;
5543;SDS011;2795;47.652;13.128;2022-11-15T08:06:07;12.03;;;4.20;;
5543;SDS011;2795;47.652;13.128;2022-11-15T08:08:33;16.57;;;4.63;;
5543;SDS011;2795;47.652;13.128;2022-11-15T08:11:00;23.63;;;4.97;;
5543;SDS011;2795;47.652;13.128;2022-11-15T08:13:27;9.63;;;3.80;;
5543;SDS011;2795;47.652;13.128;2022-11-15T08:15:58;11.93;;;3.93;;
5543;SDS011;2795;47.652;13.128;2022-11-15T08:18:25;11.93;;;4.37;;
5543;SDS011;2795;47.652;13.128;2022-11-15T08:20:52;23.40;;;4.90;;
5543;SDS011;2795;47.652;13.128;2022-11-15T08:23:18;11.73;;;3.90;;
5543;SDS011;2795;47.652;13.128;2022-11-15T08:25:45;11.10;;;3.70;;
5543;SDS011;2795;47.652;13.128;2022-11-15T08:28:11;8.70;;;3.53;;
5543;SDS011;2795;47.652;13.128;2022-11-15T08:30:38;12.23;;;4.17;;
5543;SDS011;2795;47.652;13.128;2022-11-15T08:33:12;10.47;;;4.17;;
5543;SDS011;2795;47.652;13.128;2022-11-15T08:35:40;12.33;;;4.03;;
5543;SDS011;2795;47.652;13.128;2022-11-15T08:38:07;15.10;;;4.60;;
5543;SDS011;2795;47.652;13.128;2022-11-15T08:40:34;10.90;;;4.00;;
5543;SDS011;2795;47.652;13.128;2022-11-15T08:43:01;23.93;;;4.07;;
5543;SDS011;2795;47.652;13.128;2022-11-15T08:45:29;9.47;;;3.87;;
5543;SDS011;2795;47.652;13.128;2022-11-15T08:47:56;10.10;;;4.50;;
5543;SDS011;2795;47.652;13.128;2022-11-15T08:50:22;10.07;;;3.97;;
5543;SDS011;2795;47.652;13.128;2022-11-15T08:52:49;12.20;;;4.40;;
5543;SDS011;2795;47.652;13.128;2022-11-15T08:55:16;10.17;;;3.70;;
5543;SDS011;2795;47.652;13.128;2022-11-15T08:57:43;13.57;;;4.10;;
5543;SDS011;2795;47.652;13.128;2022-11-15T09:00:10;12.30;;;3.90;;
5543;SDS011;2795;47.652;13.128;2022-11-15T09:02:38;21.53;;;5.53;;
5543;SDS011;2795;47.652;13.128;2022-11-15T09:05:05;18.93;;;5.17;;
5543;SDS011;2795;47.652;13.128;2022-11-15T09:07:32;11.63;;;4.43;;
5543;SDS011;2795;47.652;13.128;2022-11-15T09:09:59;7.80;;;3.83;;
5543;SDS011;2795;47.652;13.128;2022-11-15T09:12:26;11.27;;;4.00;;
5543;SDS011;2795;47.652;13.128;2022-11-15T09:14:52;14.47;;;4.27;;
5543;SDS011;2795;47.652;13.128;2022-11-15T09:17:19;17.13;;;4.30;;
5543;SDS011;2795;47.652;13.128;2022-11-15T09:19:50;13.47;;;4.37;;
5543;SDS011;2795;47.652;13.128;2022-11-15T09:22:17;9.90;;;4.40;;
5543;SDS011;2795;47.652;13.128;2022-11-15T09:24:43;16.23;;;4.83;;
5543;SDS011;2795;47.652;13.128;2022-11-15T09:27:10;16.53;;;4.87;;
5543;SDS011;2795;47.652;13.128;2022-11-15T09:29:54;16.40;;;4.53;;
5543;SDS011;2795;47.652;13.128;2022-11-15T09:32:21;13.73;;;4.40;;
5543;SDS011;2795;47.652;13.128;2022-11-15T09:34:49;9.20;;;3.93;;
5543;SDS011;2795;47.652;13.128;2022-11-15T09:37:16;14.83;;;4.80;;
5543;SDS011;2795;47.652;13.128;2022-11-15T09:39:43;13.20;;;4.43;;
5543;SDS011;2795;47.652;13.128;2022-11-15T09:48:16;13.70;;;4.37;;
5543;SDS011;2795;47.652;13.128;2022-11-15T09:50:52;19.20;;;4.47;;
5543;SDS011;2795;47.652;13.128;2022-11-15T09:53:41;11.30;;;4.37;;
5543;SDS011;2795;47.652;13.128;2022-11-15T09:56:34;8.60;;;3.60;;
5543;SDS011;2795;47.652;13.128;2022-11-15T10:01:43;17.30;;;4.60;;
5543;SDS011;2795;47.652;13.128;2022-11-15T10:04:14;15.93;;;4.40;;
5543;SDS011;2795;47.652;13.128;2022-11-15T10:06:43;13.47;;;4.23;;
5543;SDS011;2795;47.652;13.128;2022-11-15T10:09:35;8.90;;;3.73;;
5543;SDS011;2795;47.652;13.128;2022-11-15T10:12:07;11.73;;;3.93;;
5543;SDS011;2795;47.652;13.128;2022-11-15T10:14:34;21.07;;;4.93;;
5543;SDS011;2795;47.652;13.128;2022-11-15T10:20:05;12.83;;;4.17;;
5543;SDS011;2795;47.652;13.128;2022-11-15T10:25:35;15.00;;;4.53;;
5543;SDS011;2795;47.652;13.128;2022-11-15T10:30:52;20.00;;;4.40;;
5543;SDS011;2795;47.652;13.128;2022-11-15T10:41:14;16.27;;;4.33;;
5543;SDS011;2795;47.652;13.128;2022-11-15T10:43:42;23.63;;;5.60;;
5543;SDS011;2795;47.652;13.128;2022-11-15T10:46:22;23.43;;;5.40;;
5543;SDS011;2795;47.652;13.128;2022-11-15T10:51:52;17.67;;;4.57;;
5543;SDS011;2795;47.652;13.128;2022-11-15T10:54:42;12.20;;;4.00;;
5543;SDS011;2795;47.652;13.128;2022-11-15T10:57:12;18.20;;;4.83;;
5543;SDS011;2795;47.652;13.128;2022-11-15T10:59:54;11.57;;;4.03;;
5543;SDS011;2795;47.652;13.128;2022-11-15T11:05:00;16.03;;;4.93;;
5543;SDS011;2795;47.652;13.128;2022-11-15T11:07:28;12.00;;;3.63;;
5543;SDS011;2795;47.652;13.128;2022-11-15T11:10:18;13.40;;;4.17;;
5543;SDS011;2795;47.652;13.128;2022-11-15T11:18:42;16.70;;;4.90;;
5543;SDS011;2795;47.652;13.128;2022-11-15T11:21:33;6.53;;;3.73;;
5543;SDS011;2795;47.652;13.128;2022-11-15T11:24:11;14.10;;;4.20;;
5543;SDS011;2795;47.652;13.128;2022-11-15T11:32:40;16.13;;;4.13;;
5543;SDS011;2795;47.652;13.128;2022-11-15T11:38:23;15.60;;;4.30;;
5543;SDS011;2795;47.652;13.128;2022-11-15T11:49:15;10.77;;;3.67;;
5543;SDS011;2795;47.652;13.128;2022-11-15T11:51:44;16.67;;;4.87;;
5543;SDS011;2795;47.652;13.128;2022-11-15T11:54:26;14.27;;;4.17;;
5543;SDS011;2795;47.652;13.128;2022-11-15T11:57:03;11.97;;;4.13;;
5543;SDS011;2795;47.652;13.128;2022-11-15T11:59:36;15.20;;;4.10;;
5543;SDS011;2795;47.652;13.128;2022-11-15T12:02:10;13.83;;;5.20;;
5543;SDS011;2795;47.652;13.128;2022-11-15T12:04:42;19.47;;;5.83;;
5543;SDS011;2795;47.652;13.128;2022-11-15T12:07:13;16.57;;;5.13;;
5543;SDS011;2795;47.652;13.128;2022-11-15T12:14:49;11.13;;;4.20;;
5543;SDS011;2795;47.652;13.128;2022-11-15T12:17:27;11.30;;;4.30;;
5543;SDS011;2795;47.652;13.128;2022-11-15T12:20:14;8.80;;;3.43;;
5543;SDS011;2795;47.652;13.128;2022-11-15T12:22:43;9.03;;;3.57;;
5543;SDS011;2795;47.652;13.128;2022-11-15T12:25:18;7.53;;;3.33;;
5543;SDS011;2795;47.652;13.128;2022-11-15T12:30:43;9.10;;;3.60;;
5543;SDS011;2795;47.652;13.128;2022-11-15T12:33:29;14.70;;;4.20;;
5543;SDS011;2795;47.652;13.128;2022-11-15T12:36:04;9.37;;;3.63;;
5543;SDS011;2795;47.652;13.128;2022-11-15T12:38:52;10.47;;;4.30;;
5543;SDS011;2795;47.652;13.128;2022-11-15T12:41:29;13.67;;;4.30;;
5543;SDS011;2795;47.652;13.128;2022-11-15T12:43:57;13.47;;;3.90;;
5543;SDS011;2795;47.652;13.128;2022-11-15T12:46:58;17.93;;;4.37;;
5543;SDS011;2795;47.652;13.128;2022-11-15T13:02:32;14.03;;;3.93;;
5543;SDS011;2795;47.652;13.128;2022-11-15T13:17:44;10.53;;;3.40;;
5543;SDS011;2795;47.652;13.128;2022-11-15T13:25:35;20.87;;;5.00;;
5543;SDS011;2795;47.652;13.128;2022-11-15T13:30:41;22.37;;;4.87;;
5543;SDS011;2795;47.652;13.128;2022-11-15T13:36:20;15.67;;;4.20;;
5543;SDS011;2795;47.652;13.128;2022-11-15T13:41:51;23.53;;;4.33;;
5543;SDS011;2795;47.652;13.128;2022-11-15T13:44:22;26.20;;;5.00;;
5543;SDS011;2795;47.652;13.128;2022-11-15T13:47:09;15.30;;;4.30;;
5543;SDS011;2795;47.652;13.128;2022-11-15T13:49:40;15.27;;;4.40;;
5543;SDS011;2795;47.652;13.128;2022-11-15T13:52:07;7.93;;;3.93;;
5543;SDS011;2795;47.652;13.128;2022-11-15T13:54:41;21.70;;;6.60;;
5543;SDS011;2795;47.652;13.128;2022-11-15T13:57:19;18.60;;;6.40;;
5543;SDS011;2795;47.652;13.128;2022-11-15T13:59:51;38.37;;;11.43;;
5543;SDS011;2795;47.652;13.128;2022-11-15T14:02:30;200.40;;;57.80;;
5543;SDS011;2795;47.652;13.128;2022-11-15T14:05:03;139.27;;;40.63;;
5543;SDS011;2795;47.652;13.128;2022-11-15T14:07:44;53.90;;;19.17;;
5543;SDS011;2795;47.652;13.128;2022-11-15T14:10:30;31.63;;;10.10;;
5543;SDS011;2795;47.652;13.128;2022-11-15T14:13:01;48.10;;;19.73;;
5543;SDS011;2795;47.652;13.128;2022-11-15T14:15:31;21.47;;;7.70;;
5543;SDS011;2795;47.652;13.128;2022-11-15T14:18:00;13.37;;;4.30;;
5543;SDS011;2795;47.652;13.128;2022-11-15T14:22:55;14.13;;;3.97;;
5543;SDS011;2795;47.652;13.128;2022-11-15T14:25:30;20.73;;;4.50;;
5543;SDS011;2795;47.652;13.128;2022-11-15T14:30:38;15.53;;;4.00;;
5543;SDS011;2795;47.652;13.128;2022-11-15T14:35:57;9.40;;;3.20;;
5543;SDS011;2795;47.652;13.128;2022-11-15T14:38:25;16.33;;;3.80;;
5543;SDS011;2795;47.652;13.128;2022-11-15T14:40:52;17.67;;;3.90;;
5543;SDS011;2795;47.652;13.128;2022-11-15T14:43:20;10.03;;;2.80;;
5543;SDS011;2795;47.652;13.128;2022-11-15T14:45:46;12.50;;;3.27;;
5543;SDS011;2795;47.652;13.128;2022-11-15T14:48:13;9.53;;;2.60;;
5543;SDS011;2795;47.652;13.128;2022-11-15T14:50:40;15.73;;;3.40;;
5543;SDS011;2795;47.652;13.128;2022-11-15T14:53:10;14.93;;;4.00;;
5543;SDS011;2795;47.652;13.128;2022-11-15T14:55:39;30.47;;;5.73;;
5543;SDS011;2795;47.652;13.128;2022-11-15T14:58:07;18.17;;;3.40;;
5543;SDS011;2795;47.652;13.128;2022-11-15T15:00:34;14.60;;;3.80;;
5543;SDS011;2795;47.652;13.128;2022-11-15T15:03:02;25.80;;;4.40;;
5543;SDS011;2795;47.652;13.128;2022-11-15T15:05:34;18.40;;;4.53;;
5543;SDS011;2795;47.652;13.128;2022-11-15T15:08:02;21.30;;;4.63;;
5543;SDS011;2795;47.652;13.128;2022-11-15T15:10:33;16.30;;;4.60;;
5543;SDS011;2795;47.652;13.128;2022-11-15T15:13:16;12.20;;;4.30;;
5543;SDS011;2795;47.652;13.128;2022-11-15T15:15:44;19.23;;;4.90;;
5543;SDS011;2795;47.652;13.128;2022-11-15T15:18:10;19.37;;;6.10;;
5543;SDS011;2795;47.652;13.128;2022-11-15T15:20:38;14.67;;;5.40;;
5543;SDS011;2795;47.652;13.128;2022-11-15T15:23:08;18.60;;;7.10;;
5543;SDS011;2795;47.652;13.128;2022-11-15T15:25:45;20.10;;;6.37;;
5543;SDS011;2795;47.652;13.128;2022-11-15T15:28:14;17.93;;;6.40;;
5543;SDS011;2795;47.652;13.128;2022-11-15T15:30:40;21.37;;;6.77;;
5543;SDS011;2795;47.652;13.128;2022-11-15T15:33:07;18.67;;;6.87;;
5543;SDS011;2795;47.652;13.128;2022-11-15T15:35:34;20.70;;;6.90;;
5543;SDS011;2795;47.652;13.128;2022-11-15T15:38:01;19.73;;;7.07;;
5543;SDS011;2795;47.652;13.128;2022-11-15T15:40:29;21.17;;;6.53;;
5543;SDS011;2795;47.652;13.128;2022-11-15T15:42:57;16.63;;;5.67;;
5543;SDS011;2795;47.652;13.128;2022-11-15T15:45:25;14.20;;;5.17;;
5543;SDS011;2795;47.652;13.128;2022-11-15T15:47:53;15.40;;;5.00;;
5543;SDS011;2795;47.652;13.128;2022-11-15T15:52:57;25.23;;;5.60;;
5543;SDS011;2795;47.652;13.128;2022-11-15T15:55:25;15.03;;;5.30;;
5543;SDS011;2795;47.652;13.128;2022-11-15T15:57:52;15.73;;;5.90;;
5543;SDS011;2795;47.652;13.128;2022-11-15T16:00:20;18.70;;;5.47;;
5543;SDS011;2795;47.652;13.128;2022-11-15T16:02:49;13.73;;;5.50;;
5543;SDS011;2795;47.652;13.128;2022-11-15T16:05:15;20.63;;;5.63;;
5543;SDS011;2795;47.652;13.128;2022-11-15T16:07:43;9.47;;;4.00;;
5543;SDS011;2795;47.652;13.128;2022-11-15T16:10:22;11.13;;;4.13;;
5543;SDS011;2795;47.652;13.128;2022-11-15T16:12:56;27.93;;;5.63;;
5543;SDS011;2795;47.652;13.128;2022-11-15T16:15:24;17.87;;;5.80;;
5543;SDS011;2795;47.652;13.128;2022-11-15T16:17:53;16.17;;;5.63;;
5543;SDS011;2795;47.652;13.128;2022-11-15T16:23:02;28.73;;;5.70;;
5543;SDS011;2795;47.652;13.128;2022-11-15T16:25:42;19.20;;;6.37;;
5543;SDS011;2795;47.652;13.128;2022-11-15T16:28:21;14.87;;;6.50;;
5543;SDS011;2795;47.652;13.128;2022-11-15T16:31:01;17.03;;;6.13;;
5543;SDS011;2795;47.652;13.128;2022-11-15T16:33:28;19.10;;;6.97;;
5543;SDS011;2795;47.652;13.128;2022-11-15T16:35:55;19.33;;;7.00;;
5543;SDS011;2795;47.652;13.128;2022-11-15T16:38:21;13.90;;;6.23;;
5543;SDS011;2795;47.652;13.128;2022-11-15T16:40:48;22.93;;;6.90;;
5543;SDS011;2795;47.652;13.128;2022-11-15T16:43:15;14.67;;;6.77;;
5543;SDS011;2795;47.652;13.128;2022-11-15T16:45:42;22.30;;;7.13;;
5543;SDS011;2795;47.652;13.128;2022-11-15T16:48:19;19.03;;;6.50;;
5543;SDS011;2795;47.652;13.128;2022-11-15T16:50:47;16.57;;;6.30;;
5543;SDS011;2795;47.652;13.128;2022-11-15T16:53:13;19.13;;;7.03;;
5543;SDS011;2795;47.652;13.128;2022-11-15T16:55:40;36.70;;;13.90;;
5543;SDS011;2795;47.652;13.128;2022-11-15T16:58:07;27.80;;;13.00;;
5543;SDS011;2795;47.652;13.128;2022-11-15T17:00:34;24.13;;;10.90;;
5543;SDS011;2795;47.652;13.128;2022-11-15T17:03:01;38.30;;;10.10;;
5543;SDS011;2795;47.652;13.128;2022-11-15T17:05:29;24.87;;;9.30;;
5543;SDS011;2795;47.652;13.128;2022-11-15T17:07:55;31.87;;;8.80;;
5543;SDS011;2795;47.652;13.128;2022-11-15T17:10:23;29.77;;;8.73;;
5543;SDS011;2795;47.652;13.128;2022-11-15T17:12:51;23.63;;;8.50;;
5543;SDS011;2795;47.652;13.128;2022-11-15T17:15:18;19.50;;;7.20;;
5543;SDS011;2795;47.652;13.128;2022-11-15T17:17:49;27.07;;;7.40;;
5543;SDS011;2795;47.652;13.128;2022-11-15T17:20:17;25.40;;;7.40;;
5543;SDS011;2795;47.652;13.128;2022-11-15T17:22:45;21.40;;;6.73;;
5543;SDS011;2795;47.652;13.128;2022-11-15T17:25:12;20.77;;;7.17;;
5543;SDS011;2795;47.652;13.128;2022-11-15T17:27:39;27.27;;;7.97;;